Time;durP1;ratioP1;P1;durP2;ratioP2;P2;SDS_P1;SDS_P2;PMS_P1;PMS_P2;Temp;Humidity;BMP_temperature;BMP_pressure;BME280_temperature;BME280_humidity;BME280_pressure;Samples;Min_cycle;Max_cycle;Signal;HPM_P1;HPM_P2
2022/12/26 00:02:15;;;;;;;0.63;0.63;;;;;8.60;95928.00;;;;5033891;28;20217;-55
2022/12/26 00:04:43;;;;;;;0.70;0.70;;;;;8.50;95919.00;;;;5033385;28;20227;-55
2022/12/26 00:07:12;;;;;;;1.00;1.00;;;;;8.50;95923.00;;;;5033221;28;20216;-55
2022/12/26 00:09:39;;;;;;;0.80;0.80;;;;;8.50;95922.00;;;;5033255;28;20258;-54
2022/12/26 00:12:07;;;;;;;0.60;0.60;;;;;8.50;95920.00;;;;5033998;28;20266;-54
2022/12/26 00:14:34;;;;;;;0.93;0.93;;;;;8.60;95923.00;;;;5033189;28;20189;-57
2022/12/26 00:17:01;;;;;;;1.60;0.80;;;;;8.50;95921.00;;;;5033987;28;20636;-55
2022/12/26 00:19:29;;;;;;;1.37;1.27;;;;;8.40;95918.00;;;;5033154;28;20278;-55
2022/12/26 00:21:56;;;;;;;0.70;0.70;;;;;8.40;95920.00;;;;5033439;28;20217;-55
2022/12/26 00:24:25;;;;;;;0.97;0.97;;;;;8.50;95925.00;;;;5033920;28;20286;-54
2022/12/26 00:26:52;;;;;;;0.93;0.93;;;;;8.50;95926.00;;;;5033760;28;20219;-54
2022/12/26 00:29:21;;;;;;;1.80;1.27;;;;;8.40;95916.00;;;;5033371;28;20189;-55
2022/12/26 00:31:49;;;;;;;0.50;0.50;;;;;8.40;95908.00;;;;5032985;28;20267;-54
2022/12/26 00:34:16;;;;;;;0.93;0.93;;;;;8.30;95924.00;;;;5033806;28;20287;-54
2022/12/26 00:36:44;;;;;;;0.70;0.70;;;;;8.30;95923.00;;;;5032987;28;20201;-55
2022/12/26 00:39:11;;;;;;;1.53;1.43;;;;;8.40;95911.00;;;;5033684;28;20197;-54
2022/12/26 00:41:40;;;;;;;0.70;0.70;;;;;8.30;95921.00;;;;5033099;28;20722;-55
2022/12/26 00:44:08;;;;;;;0.80;0.80;;;;;8.30;95910.00;;;;5032949;28;20259;-55
2022/12/26 00:46:35;;;;;;;1.07;1.07;;;;;8.30;95920.00;;;;5033065;28;20217;-54
2022/12/26 00:49:03;;;;;;;1.10;1.10;;;;;8.30;95914.00;;;;5037148;28;20193;-55
2022/12/26 00:51:31;;;;;;;1.30;1.27;;;;;8.30;95928.00;;;;5036842;28;20212;-55
2022/12/26 00:53:58;;;;;;;0.93;0.93;;;;;8.20;95918.00;;;;5036760;28;20200;-55
2022/12/26 00:56:25;;;;;;;0.87;0.87;;;;;8.20;95911.00;;;;5036795;28;20193;-55
2022/12/26 00:58:54;;;;;;;0.50;0.50;;;;;8.20;95919.00;;;;5036742;28;20201;-54
2022/12/26 01:01:23;;;;;;;1.00;0.93;;;;;8.20;95918.00;;;;5037061;28;20220;-54
2022/12/26 01:03:51;;;;;;;1.00;1.00;;;;;8.20;95922.00;;;;5036644;28;20201;-55
2022/12/26 01:06:18;;;;;;;0.80;0.80;;;;;8.30;95921.00;;;;5036503;28;20225;-55
2022/12/26 01:08:46;;;;;;;1.53;1.43;;;;;8.20;95922.00;;;;5036567;28;20262;-55
2022/12/26 01:11:38;;;;;;;0.90;0.90;;;;;8.20;95924.00;;;;5036471;28;20221;-55
2022/12/26 01:14:05;;;;;;;0.93;0.90;;;;;8.30;95925.00;;;;5036298;28;20228;-54
2022/12/26 01:16:32;;;;;;;1.20;1.10;;;;;8.20;95921.00;;;;5036971;28;20189;-54
2022/12/26 01:19:00;;;;;;;0.90;0.90;;;;;8.20;95920.00;;;;5036649;28;20197;-54
2022/12/26 01:21:27;;;;;;;1.07;1.07;;;;;8.30;95919.00;;;;5036507;28;20216;-54
2022/12/26 01:23:55;;;;;;;0.80;0.80;;;;;8.10;95921.00;;;;5036587;28;20266;-55
2022/12/26 01:26:23;;;;;;;1.13;1.13;;;;;8.10;95914.00;;;;5036198;28;20220;-55
2022/12/26 01:28:52;;;;;;;0.80;0.70;;;;;8.10;95922.00;;;;5036170;28;20296;-55
2022/12/26 01:31:22;;;;;;;7.17;1.50;;;;;8.20;95920.00;;;;5036314;28;20279;-55
2022/12/26 01:33:49;;;;;;;0.60;0.60;;;;;8.20;95916.00;;;;5036110;28;20215;-54
2022/12/26 01:36:18;;;;;;;1.07;1.07;;;;;8.10;95917.00;;;;5018299;28;20659;-55
2022/12/26 01:38:45;;;;;;;2.90;0.97;;;;;8.10;95922.00;;;;5036260;28;20228;-55
2022/12/26 01:41:19;;;;;;;0.87;0.87;;;;;8.20;95946.00;;;;5035724;28;20216;-54
2022/12/26 01:43:55;;;;;;;1.00;1.00;;;;;8.30;95930.00;;;;5036210;28;20185;-54
2022/12/26 01:46:30;;;;;;;1.20;1.20;;;;;8.30;95931.00;;;;5018928;28;20213;-55
2022/12/26 01:49:01;;;;;;;1.00;0.97;;;;;8.40;95930.00;;;;5035834;28;20242;-54
2022/12/26 01:51:33;;;;;;;1.80;1.43;;;;;8.50;95939.00;;;;5035940;28;20236;-55
2022/12/26 01:54:03;;;;;;;0.70;0.70;;;;;8.20;95939.00;;;;5035997;28;20239;-55
2022/12/26 01:56:35;;;;;;;0.93;0.93;;;;;8.20;95923.00;;;;5035968;28;20174;-54
2022/12/26 01:59:06;;;;;;;0.70;0.70;;;;;8.00;95936.00;;;;5035221;28;20208;-54
2022/12/26 02:01:37;;;;;;;0.83;0.83;;;;;8.10;95925.00;;;;5035744;28;20213;-55
2022/12/26 02:06:54;;;;;;;1.43;0.60;;;;;8.10;95923.00;;;;5035438;28;20216;-55
2022/12/26 02:09:22;;;;;;;1.20;0.97;;;;;8.10;95924.00;;;;5035390;28;20243;-55
2022/12/26 02:11:54;;;;;;;0.83;0.83;;;;;8.00;95920.00;;;;5017534;28;20217;-54
2022/12/26 02:14:22;;;;;;;0.80;0.80;;;;;8.00;95922.00;;;;5017583;28;20193;-54
2022/12/26 02:16:50;;;;;;;0.80;0.80;;;;;8.10;95911.00;;;;5035469;28;20204;-55
2022/12/26 02:19:29;;;;;;;1.03;1.03;;;;;8.30;95933.00;;;;5035219;28;20196;-55
2022/12/26 02:22:19;;;;;;;1.30;0.97;;;;;8.30;95951.00;;;;5035153;28;20307;-55
2022/12/26 02:25:21;;;;;;;0.93;0.93;;;;;8.10;95952.00;;;;5035119;28;20196;-55
2022/12/26 02:28:22;;;;;;;1.43;1.33;;;;;8.10;95940.00;;;;5035356;28;20208;-55
2022/12/26 02:30:55;;;;;;;0.63;0.63;;;;;8.10;95956.00;;;;5034998;28;20191;-54
2022/12/26 02:33:42;;;;;;;0.50;0.50;;;;;8.20;95958.00;;;;5017246;28;20193;-54
2022/12/26 02:36:33;;;;;;;0.73;0.73;;;;;8.20;95944.00;;;;5034947;28;20636;-54
2022/12/26 02:39:15;;;;;;;0.97;0.97;;;;;8.20;95953.00;;;;5034822;28;20644;-55
2022/12/26 02:41:52;;;;;;;1.43;1.33;;;;;8.10;95945.00;;;;5034987;28;20225;-54
2022/12/26 02:47:15;;;;;;;1.40;1.30;;;;;8.20;95950.00;;;;5017438;28;20228;-55
2022/12/26 03:18:27;;;;;;;0.60;0.60;;;;;8.20;95927.00;;;;5001461;28;20208;-54
2022/12/26 03:20:56;;;;;;;0.60;0.60;;;;;8.10;95928.00;;;;5034046;28;20181;-55
2022/12/26 03:23:24;;;;;;;0.73;0.73;;;;;8.20;95931.00;;;;5034313;28;20259;-54
2022/12/26 03:28:41;;;;;;;0.73;0.73;;;;;8.10;95933.00;;;;5034149;28;20678;-54
2022/12/26 03:31:10;;;;;;;0.80;0.80;;;;;8.10;95924.00;;;;5033922;28;20218;-55
2022/12/26 03:36:40;;;;;;;0.60;0.60;;;;;8.00;95923.00;;;;5016811;28;20205;-54
2022/12/26 03:39:17;;;;;;;1.00;1.00;;;;;7.90;95925.00;;;;5033774;28;20240;-54
2022/12/26 04:44:08;;;;;;;0.80;0.80;;;;;8.00;95925.00;;;;5032892;28;20674;-59
2022/12/26 04:46:38;;;;;;;0.73;0.73;;;;;8.10;95938.00;;;;5032844;28;20259;-55
2022/12/26 04:51:54;;;;;;;2.03;0.70;;;;;8.10;95929.00;;;;5033123;28;20208;-54
2022/12/26 04:54:22;;;;;;;0.67;0.67;;;;;8.10;95933.00;;;;5033049;28;20539;-54
2022/12/26 04:56:49;;;;;;;0.60;0.60;;;;;8.10;95931.00;;;;5032765;28;20192;-54
2022/12/26 04:59:19;;;;;;;0.80;0.80;;;;;8.10;95944.00;;;;5033301;28;20201;-54
2022/12/26 05:10:08;;;;;;;0.70;0.70;;;;;8.30;95918.00;;;;5032998;28;20208;-55
2022/12/26 05:12:35;;;;;;;1.20;1.20;;;;;8.20;95921.00;;;;5032712;28;20292;-54
2022/12/26 05:15:05;;;;;;;0.80;0.80;;;;;8.10;95934.00;;;;5032634;28;20198;-55
2022/12/26 05:28:51;;;;;;;0.90;0.90;;;;;7.80;95944.00;;;;5032727;28;20284;-57
2022/12/26 05:31:20;;;;;;;1.37;1.27;;;;;7.80;95941.00;;;;5032913;28;20291;-55
2022/12/26 05:34:04;;;;;;;1.00;1.00;;;;;7.80;95947.00;;;;5033264;28;20200;-55
2022/12/26 05:36:37;;;;;;;0.60;0.60;;;;;8.10;95951.00;;;;5018879;28;20192;-55
2022/12/26 05:39:05;;;;;;;0.50;0.50;;;;;8.20;95959.00;;;;5036046;28;20243;-54
2022/12/26 05:41:32;;;;;;;0.60;0.60;;;;;8.10;95972.00;;;;5035787;28;20243;-54
2022/12/26 05:44:00;;;;;;;0.70;0.70;;;;;8.10;95959.00;;;;5035952;28;20201;-55
2022/12/26 05:46:29;;;;;;;0.60;0.60;;;;;8.10;95965.00;;;;5036387;28;20193;-55
2022/12/26 05:48:56;;;;;;;1.80;1.07;;;;;8.00;95950.00;;;;5035798;28;20267;-54
2022/12/26 05:51:24;;;;;;;1.60;1.13;;;;;7.90;95957.00;;;;5035890;28;20220;-55
2022/12/26 05:53:51;;;;;;;0.90;0.90;;;;;8.00;95976.00;;;;5035729;28;20721;-55
2022/12/26 05:56:20;;;;;;;0.70;0.70;;;;;8.00;95960.00;;;;5035675;28;20250;-55
2022/12/26 05:58:53;;;;;;;1.07;1.07;;;;;8.00;95959.00;;;;5035678;28;20193;-54
2022/12/26 06:01:21;;;;;;;1.53;1.03;;;;;8.00;95933.00;;;;5035557;28;20212;-54
2022/12/26 06:03:52;;;;;;;0.70;0.70;;;;;7.90;95926.00;;;;5036063;28;20196;-55
2022/12/26 06:06:20;;;;;;;1.43;1.37;;;;;7.80;95929.00;;;;5035481;28;20276;-55
2022/12/26 06:08:49;;;;;;;1.20;1.10;;;;;7.80;95927.00;;;;5035402;28;20228;-54
2022/12/26 06:11:18;;;;;;;0.80;0.80;;;;;7.90;95938.00;;;;5035313;28;20217;-56
2022/12/26 06:13:45;;;;;;;1.00;1.00;;;;;7.90;95939.00;;;;5035368;28;20193;-54
2022/12/26 06:16:15;;;;;;;1.37;1.30;;;;;8.00;95941.00;;;;5035280;28;20197;-55
2022/12/26 06:18:42;;;;;;;0.90;0.90;;;;;8.00;95923.00;;;;5035572;28;20197;-54
2022/12/26 06:21:13;;;;;;;0.80;0.80;;;;;8.00;95937.00;;;;5035182;28;20223;-55
2022/12/26 06:23:41;;;;;;;0.60;0.60;;;;;8.00;95933.00;;;;5035205;28;20545;-55
2022/12/26 06:26:11;;;;;;;0.60;0.60;;;;;8.10;95923.00;;;;5035249;28;20193;-55
2022/12/26 06:28:39;;;;;;;0.80;0.80;;;;;8.20;95920.00;;;;5035034;28;20216;-55
2022/12/26 06:31:09;;;;;;;1.37;1.30;;;;;8.20;95922.00;;;;5034986;28;20267;-54
2022/12/26 06:33:37;;;;;;;0.90;0.90;;;;;8.30;95932.00;;;;5034987;28;20196;-55
2022/12/26 06:36:07;;;;;;;0.80;0.80;;;;;8.30;95929.00;;;;5035253;28;20197;-55
2022/12/26 06:38:36;;;;;;;0.70;0.70;;;;;8.30;95926.00;;;;5034899;28;20189;-55
2022/12/26 06:41:06;;;;;;;1.30;1.23;;;;;8.30;95926.00;;;;5016816;28;20703;-55
2022/12/26 06:43:33;;;;;;;0.90;0.90;;;;;8.30;95927.00;;;;5034895;28;20185;-55
2022/12/26 06:46:02;;;;;;;0.77;0.77;;;;;8.20;95929.00;;;;5034573;28;20189;-55
2022/12/26 06:48:30;;;;;;;0.80;0.80;;;;;8.40;95925.00;;;;5034613;28;20699;-55
2022/12/26 06:50:57;;;;;;;1.00;0.90;;;;;8.50;95930.00;;;;5034643;28;20189;-55
2022/12/26 06:53:25;;;;;;;1.30;1.20;;;;;8.50;95924.00;;;;5034830;28;20246;-55
2022/12/26 06:55:54;;;;;;;0.60;0.60;;;;;8.70;95931.00;;;;5035094;28;20192;-55
2022/12/26 06:58:21;;;;;;;1.37;1.10;;;;;8.60;95935.00;;;;5034524;28;20223;-54
2022/12/26 07:00:48;;;;;;;0.93;0.80;;;;;8.70;95935.00;;;;5016724;28;20196;-55
2022/12/26 07:03:16;;;;;;;1.00;1.00;;;;;8.80;95939.00;;;;5034526;28;20197;-55
2022/12/26 07:05:43;;;;;;;0.70;0.70;;;;;8.80;95949.00;;;;5034445;28;20196;-55
2022/12/26 07:08:11;;;;;;;0.93;0.90;;;;;8.80;95943.00;;;;5034311;28;20227;-54
2022/12/26 07:10:38;;;;;;;0.80;0.77;;;;;8.90;95932.00;;;;5034355;28;20243;-55
2022/12/26 07:13:07;;;;;;;0.57;0.57;;;;;8.90;95944.00;;;;5034239;28;20213;-55
2022/12/26 07:15:34;;;;;;;1.50;1.27;;;;;8.90;95931.00;;;;5034774;28;20197;-55
2022/12/26 07:18:02;;;;;;;0.70;0.70;;;;;8.90;95945.00;;;;5034191;28;20193;-55
2022/12/26 07:20:29;;;;;;;0.70;0.70;;;;;8.90;95950.00;;;;5034093;28;20192;-55
2022/12/26 07:22:57;;;;;;;0.77;0.77;;;;;9.00;95956.00;;;;5034050;28;20209;-54
2022/12/26 07:25:24;;;;;;;1.83;1.00;;;;;8.90;95946.00;;;;5034098;28;20189;-55
2022/12/26 07:27:53;;;;;;;1.17;1.07;;;;;8.80;95948.00;;;;5034466;28;20217;-54
2022/12/26 07:30:22;;;;;;;2.37;0.97;;;;;8.90;95936.00;;;;5034461;28;20201;-55
2022/12/26 07:32:49;;;;;;;0.83;0.83;;;;;8.90;95955.00;;;;5033939;28;20283;-55
2022/12/26 07:35:17;;;;;;;0.77;0.77;;;;;8.90;95960.00;;;;5033906;28;20197;-55
2022/12/26 07:37:44;;;;;;;2.50;1.00;;;;;9.00;95947.00;;;;5034887;28;20219;-55
2022/12/26 07:40:12;;;;;;;0.73;0.73;;;;;9.00;95939.00;;;;5016909;28;20705;-54
2022/12/26 07:42:40;;;;;;;0.70;0.70;;;;;9.10;95942.00;;;;5067250;22;20235;-57
2022/12/26 07:45:08;;;;;;;1.23;1.23;;;;;9.10;95947.00;;;;5074400;28;20194;-58
2022/12/26 07:47:37;;;;;;;0.83;0.83;;;;;9.00;95954.00;;;;5073474;28;20191;-58
2022/12/26 07:50:05;;;;;;;0.80;0.80;;;;;9.00;95965.00;;;;5073449;28;20200;-59
2022/12/26 07:52:33;;;;;;;0.83;0.83;;;;;9.00;95959.00;;;;5073350;28;20212;-58
2022/12/26 07:55:00;;;;;;;0.60;0.60;;;;;9.10;95958.00;;;;5073386;28;20191;-58
2022/12/26 07:57:27;;;;;;;6.03;1.73;;;;;9.10;95955.00;;;;5072742;28;20245;-58
2022/12/26 07:59:55;;;;;;;1.00;1.00;;;;;9.20;95957.00;;;;5073824;28;20187;-58
2022/12/26 08:02:22;;;;;;;0.73;0.73;;;;;9.20;95960.00;;;;5073182;28;20686;-58
2022/12/26 08:04:51;;;;;;;0.80;0.80;;;;;9.30;95966.00;;;;5055237;28;20566;-58
2022/12/26 08:07:18;;;;;;;0.77;0.77;;;;;9.30;95965.00;;;;5073180;28;20249;-59
2022/12/26 08:09:46;;;;;;;0.83;0.83;;;;;9.50;95961.00;;;;5073151;28;20215;-58
2022/12/26 08:12:13;;;;;;;0.60;0.60;;;;;9.50;95951.00;;;;5073558;28;20211;-58
2022/12/26 08:14:41;;;;;;;0.83;0.83;;;;;9.50;95957.00;;;;5073147;28;20194;-58
2022/12/26 08:17:08;;;;;;;0.90;0.90;;;;;9.60;95967.00;;;;5073147;28;20202;-58
2022/12/26 08:19:36;;;;;;;0.60;0.60;;;;;9.50;95970.00;;;;5073263;28;20192;-58
2022/12/26 08:22:05;;;;;;;1.27;1.20;;;;;9.50;95993.00;;;;5055006;28;20211;-58
2022/12/26 08:24:32;;;;;;;0.80;0.80;;;;;9.60;96000.00;;;;5073337;28;20221;-58
2022/12/26 08:27:00;;;;;;;0.60;0.60;;;;;9.50;95990.00;;;;5072939;28;20191;-58
2022/12/26 08:29:27;;;;;;;1.30;1.27;;;;;9.50;96003.00;;;;5072957;28;20225;-58
2022/12/26 08:31:55;;;;;;;0.70;0.70;;;;;9.50;96015.00;;;;5073448;28;20673;-58
2022/12/26 08:34:23;;;;;;;0.90;0.90;;;;;9.40;96021.00;;;;5072883;28;20241;-57
2022/12/26 08:36:51;;;;;;;1.17;1.17;;;;;9.30;96032.00;;;;5073260;28;20614;-59
2022/12/26 08:39:20;;;;;;;0.80;0.80;;;;;9.30;96039.00;;;;5072837;28;20218;-59
2022/12/26 08:41:47;;;;;;;1.23;1.13;;;;;9.20;96041.00;;;;5072696;28;20219;-59
2022/12/26 08:44:16;;;;;;;0.60;0.60;;;;;9.10;96050.00;;;;5072826;28;20180;-58
2022/12/26 08:46:44;;;;;;;0.80;0.80;;;;;9.00;96049.00;;;;5072787;28;20198;-59
2022/12/26 08:49:12;;;;;;;1.10;1.10;;;;;9.10;96061.00;;;;5072952;28;20685;-59
2022/12/26 08:51:39;;;;;;;0.77;0.77;;;;;9.00;96067.00;;;;5073157;28;20211;-59
2022/12/26 08:54:07;;;;;;;1.20;1.10;;;;;8.90;96076.00;;;;5072767;28;20199;-59
2022/12/26 08:56:35;;;;;;;0.60;0.60;;;;;8.90;96069.00;;;;5072761;28;20658;-59
2022/12/26 08:59:03;;;;;;;0.80;0.80;;;;;8.90;96068.00;;;;5072963;28;20650;-59
2022/12/26 09:01:31;;;;;;;1.10;1.00;;;;;9.00;96074.00;;;;5072686;28;20195;-59
2022/12/26 09:04:01;;;;;;;0.87;0.87;;;;;9.10;96064.00;;;;5072969;28;20200;-59
2022/12/26 09:06:29;;;;;;;1.33;1.23;;;;;9.10;96074.00;;;;5072576;28;20662;-59
2022/12/26 09:08:56;;;;;;;1.07;1.07;;;;;9.10;96071.00;;;;5073066;28;20286;-59
2022/12/26 09:11:26;;;;;;;1.27;1.20;;;;;9.30;96074.00;;;;5076425;28;20195;-59
2022/12/26 09:13:55;;;;;;;1.20;1.13;;;;;9.40;96050.00;;;;5076347;28;20203;-59
2022/12/26 09:16:25;;;;;;;0.80;0.80;;;;;9.60;96057.00;;;;5076593;28;20193;-59
2022/12/26 09:18:55;;;;;;;1.13;1.03;;;;;9.80;96051.00;;;;5076262;28;20187;-59
2022/12/26 09:21:24;;;;;;;1.17;1.17;;;;;9.90;96058.00;;;;5076226;28;20234;-59
2022/12/26 09:23:56;;;;;;;1.40;1.30;;;;;9.90;96065.00;;;;5076179;28;20257;-59
2022/12/26 09:26:23;;;;;;;0.93;0.93;;;;;9.80;96065.00;;;;5076158;28;20176;-59
2022/12/26 09:28:51;;;;;;;1.33;1.33;;;;;9.60;96086.00;;;;5075959;28;20215;-59
2022/12/26 09:31:21;;;;;;;0.60;0.60;;;;;9.40;96099.00;;;;5076233;28;20261;-59
2022/12/26 09:33:49;;;;;;;1.67;1.63;;;;;9.30;96106.00;;;;5076363;28;20266;-59
2022/12/26 09:36:19;;;;;;;0.90;0.90;;;;;9.30;96119.00;;;;5076212;28;20306;-58
2022/12/26 09:38:48;;;;;;;0.80;0.80;;;;;9.20;96132.00;;;;5076004;28;20188;-59
2022/12/26 09:41:35;;;;;;;1.00;1.00;;;;;9.20;96142.00;;;;5075915;28;20219;-59
2022/12/26 09:44:08;;;;;;;1.17;1.07;;;;;9.00;96152.00;;;;5075910;28;20229;-59
2022/12/26 09:46:47;;;;;;;1.07;0.87;;;;;8.80;96139.00;;;;5076917;28;20179;-59
2022/12/26 09:49:18;;;;;;;1.10;1.10;;;;;8.80;96151.00;;;;5075882;28;20203;-59
2022/12/26 09:51:52;;;;;;;0.97;0.97;;;;;8.80;96164.00;;;;5076142;28;20265;-59
2022/12/26 09:54:25;;;;;;;1.00;1.00;;;;;8.70;96158.00;;;;5075821;28;20229;-58
2022/12/26 09:56:54;;;;;;;1.20;1.17;;;;;8.90;96174.00;;;;5075801;28;20556;-58
2022/12/26 09:59:23;;;;;;;0.87;0.87;;;;;8.90;96160.00;;;;5075807;28;20716;-58
2022/12/26 10:01:52;;;;;;;0.83;0.83;;;;;9.00;96159.00;;;;5075645;28;20207;-58
2022/12/26 10:04:24;;;;;;;0.60;0.60;;;;;9.00;96155.00;;;;5075456;28;20195;-58
2022/12/26 10:07:01;;;;;;;0.60;0.60;;;;;9.10;96167.00;;;;5075492;28;20184;-59
2022/12/26 10:09:44;;;;;;;0.80;0.80;;;;;9.10;96169.00;;;;5075921;28;20206;-60
2022/12/26 10:12:36;;;;;;;0.70;0.70;;;;;9.00;96167.00;;;;5075844;28;20264;-59
2022/12/26 10:15:12;;;;;;;0.60;0.60;;;;;9.10;96163.00;;;;5072319;28;20709;-60
2022/12/26 10:17:49;;;;;;;0.50;0.50;;;;;9.20;96183.00;;;;5075521;28;20646;-60
2022/12/26 10:20:28;;;;;;;0.70;0.70;;;;;9.20;96184.00;;;;5075010;28;20198;-60
2022/12/26 10:23:20;;;;;;;0.70;0.70;;;;;9.10;96180.00;;;;5075333;28;20249;-60
2022/12/26 10:25:52;;;;;;;0.60;0.60;;;;;9.20;96190.00;;;;5044724;28;20206;-59
2022/12/26 10:28:27;;;;;;;0.60;0.60;;;;;9.10;96183.00;;;;5075070;28;20221;-60
2022/12/26 10:30:58;;;;;;;0.93;0.93;;;;;9.20;96179.00;;;;5075420;28;20188;-60
2022/12/26 10:33:35;;;;;;;0.80;0.80;;;;;9.10;96171.00;;;;5074907;28;20207;-60
2022/12/26 10:36:03;;;;;;;0.90;0.90;;;;;9.30;96172.00;;;;5075280;28;20175;-60
2022/12/26 10:38:35;;;;;;;0.60;0.60;;;;;9.30;96182.00;;;;5074852;28;20206;-60
2022/12/26 10:41:08;;;;;;;0.60;0.60;;;;;9.40;96190.00;;;;5074844;28;20192;-57
2022/12/26 10:43:39;;;;;;;0.60;0.60;;;;;9.30;96180.00;;;;5074639;28;20269;-60
2022/12/26 10:46:32;;;;;;;0.53;0.53;;;;;9.20;96183.00;;;;5074782;28;20183;-59
2022/12/26 10:49:01;;;;;;;0.50;0.50;;;;;9.30;96203.00;;;;5074655;28;20253;-58
2022/12/26 10:51:28;;;;;;;0.50;0.50;;;;;9.30;96194.00;;;;5074791;28;20580;-58
2022/12/26 10:53:56;;;;;;;0.50;0.50;;;;;9.10;96185.00;;;;5074547;28;20191;-58
2022/12/26 10:56:26;;;;;;;0.60;0.60;;;;;9.10;96185.00;;;;5074556;28;20555;-58
2022/12/26 10:59:01;;;;;;;0.50;0.50;;;;;9.10;96183.00;;;;5075026;28;20186;-58
2022/12/26 11:01:34;;;;;;;0.70;0.70;;;;;9.10;96182.00;;;;5074446;28;20182;-58
2022/12/26 11:04:05;;;;;;;0.50;0.50;;;;;9.10;96183.00;;;;5074374;28;20202;-58
2022/12/26 11:06:37;;;;;;;0.60;0.60;;;;;9.20;96181.00;;;;5074614;28;20191;-58
2022/12/26 11:09:06;;;;;;;0.63;0.63;;;;;9.20;96170.00;;;;5074280;28;20200;-58
2022/12/26 11:14:37;;;;;;;0.50;0.50;;;;;9.40;96141.00;;;;5071924;28;20203;-58
2022/12/26 11:17:09;;;;;;;0.70;0.70;;;;;9.20;96130.00;;;;5074115;28;20176;-59
2022/12/26 11:19:40;;;;;;;0.73;0.73;;;;;9.20;96130.00;;;;5074409;28;20175;-58
2022/12/26 11:22:25;;;;;;;0.60;0.60;;;;;9.30;96152.00;;;;5074019;28;20260;-58
2022/12/26 11:25:16;;;;;;;0.50;0.50;;;;;9.20;96165.00;;;;5056773;28;20643;-58
2022/12/26 11:27:47;;;;;;;0.60;0.60;;;;;8.80;96167.00;;;;5074193;28;20282;-58
2022/12/26 11:30:27;;;;;;;0.60;0.60;;;;;8.80;96175.00;;;;5073748;28;20211;-58
2022/12/26 11:33:10;;;;;;;0.50;0.50;;;;;8.80;96178.00;;;;5072918;28;20234;-61
2022/12/26 11:35:48;;;;;;;0.60;0.60;;;;;9.00;96189.00;;;;5073767;28;20187;-58
2022/12/26 11:38:33;;;;;;;0.50;0.50;;;;;8.90;96183.00;;;;5073999;28;20195;-58
2022/12/26 11:43:49;;;;;;;1.07;0.97;;;;;8.60;96141.00;;;;5073536;28;20214;-57
2022/12/26 11:46:17;;;;;;;0.53;0.53;;;;;8.60;96161.00;;;;5055644;28;20686;-58
2022/12/26 11:48:49;;;;;;;0.53;0.53;;;;;8.60;96136.00;;;;5073456;28;20195;-62
2022/12/26 11:51:33;;;;;;;0.60;0.60;;;;;8.90;96120.00;;;;5073545;28;20194;-58
2022/12/26 11:54:27;;;;;;;0.97;0.80;;;;;8.80;96118.00;;;;5073825;28;20184;-58
2022/12/26 11:57:18;;;;;;;0.50;0.50;;;;;8.60;96126.00;;;;5073770;28;20306;-57
2022/12/26 11:59:46;;;;;;;0.50;0.50;;;;;8.60;96130.00;;;;5073870;28;20187;-58
2022/12/26 12:02:28;;;;;;;0.60;0.60;;;;;8.60;96132.00;;;;5073272;28;20623;-57
2022/12/26 12:04:59;;;;;;;0.40;0.40;;;;;8.80;96139.00;;;;5055406;28;20297;-57
2022/12/26 12:07:54;;;;;;;0.57;0.57;;;;;8.90;96148.00;;;;5073518;28;20229;-58
2022/12/26 12:10:46;;;;;;;0.43;0.43;;;;;8.60;96157.00;;;;5073716;28;20211;-58
2022/12/26 12:13:21;;;;;;;0.80;0.80;;;;;8.90;96155.00;;;;5073420;28;20628;-57
2022/12/26 12:15:54;;;;;;;0.60;0.60;;;;;8.80;96143.00;;;;5073574;28;20179;-58
2022/12/26 12:18:36;;;;;;;0.67;0.67;;;;;8.60;96136.00;;;;5073747;28;20187;-57
2022/12/26 12:21:12;;;;;;;0.67;0.67;;;;;8.70;96134.00;;;;5073183;28;20182;-59
2022/12/26 12:24:00;;;;;;;0.53;0.53;;;;;8.80;96129.00;;;;5073108;28;20218;-58
2022/12/26 12:26:35;;;;;;;0.63;0.63;;;;;9.10;96141.00;;;;5073119;28;20645;-58
2022/12/26 12:29:25;;;;;;;0.50;0.50;;;;;8.90;96135.00;;;;5073345;28;20183;-59
2022/12/26 12:32:07;;;;;;;0.60;0.60;;;;;8.80;96118.00;;;;5073307;28;20212;-58
2022/12/26 12:34:51;;;;;;;0.60;0.60;;;;;9.00;96122.00;;;;5073438;28;20202;-58
2022/12/26 12:37:33;;;;;;;0.70;0.70;;;;;9.00;96118.00;;;;5073404;28;20172;-58
2022/12/26 12:40:15;;;;;;;0.60;0.60;;;;;8.60;96122.00;;;;5073356;28;20178;-58
2022/12/26 12:42:53;;;;;;;0.67;0.67;;;;;8.70;96108.00;;;;5073020;28;20592;-58
2022/12/26 12:45:29;;;;;;;0.60;0.60;;;;;8.80;96113.00;;;;5077146;28;20623;-59
2022/12/26 12:48:15;;;;;;;0.60;0.60;;;;;8.70;96113.00;;;;5077348;28;20259;-58
2022/12/26 12:50:50;;;;;;;0.80;0.80;;;;;8.70;96122.00;;;;5077023;28;20203;-58
2022/12/26 12:53:28;;;;;;;0.77;0.77;;;;;8.80;96117.00;;;;5076963;28;20218;-58
2022/12/26 12:56:15;;;;;;;0.60;0.60;;;;;8.70;96114.00;;;;5058988;28;20209;-58
2022/12/26 12:58:53;;;;;;;0.50;0.50;;;;;8.70;96106.00;;;;5058796;28;20194;-58
2022/12/26 13:01:27;;;;;;;0.60;0.60;;;;;8.80;96110.00;;;;5076916;28;20186;-58
2022/12/26 13:04:01;;;;;;;0.53;0.53;;;;;9.00;96113.00;;;;5058762;28;20223;-58
2022/12/26 13:06:34;;;;;;;0.50;0.50;;;;;9.00;96121.00;;;;5076929;28;20611;-58
2022/12/26 13:09:07;;;;;;;0.50;0.50;;;;;8.80;96116.00;;;;5076566;28;20179;-58
2022/12/26 13:11:40;;;;;;;0.60;0.60;;;;;8.80;96122.00;;;;5076796;28;20176;-59
2022/12/26 13:14:16;;;;;;;0.60;0.60;;;;;8.80;96108.00;;;;5058664;28;20202;-59
2022/12/26 13:16:46;;;;;;;0.57;0.57;;;;;8.70;96098.00;;;;5076605;28;20262;-58
2022/12/26 13:19:20;;;;;;;0.57;0.57;;;;;8.80;96115.00;;;;5058510;28;20184;-59
2022/12/26 13:21:49;;;;;;;0.63;0.63;;;;;8.80;96094.00;;;;5076853;28;20637;-59
2022/12/26 13:24:23;;;;;;;0.50;0.50;;;;;8.90;96086.00;;;;5058430;28;20693;-58
2022/12/26 13:27:04;;;;;;;0.50;0.50;;;;;8.80;96093.00;;;;5076424;28;20184;-58
2022/12/26 13:29:38;;;;;;;0.60;0.60;;;;;9.20;96078.00;;;;5076445;28;20619;-58
2022/12/26 13:32:14;;;;;;;0.57;0.57;;;;;9.10;96090.00;;;;5076605;28;20219;-58
2022/12/26 13:34:44;;;;;;;0.50;0.50;;;;;8.90;96084.00;;;;5076260;28;20176;-58
2022/12/26 13:37:41;;;;;;;0.53;0.53;;;;;8.80;96088.00;;;;5076290;28;20206;-58
2022/12/26 13:40:17;;;;;;;0.60;0.60;;;;;9.00;96083.00;;;;5075209;28;20196;-58
2022/12/26 13:46:00;;;;;;;0.60;0.60;;;;;8.90;96075.00;;;;5076240;28;20511;-58
2022/12/26 13:48:53;;;;;;;0.70;0.70;;;;;9.10;96073.00;;;;5076206;28;20580;-58
2022/12/26 13:51:50;;;;;;;0.70;0.70;;;;;9.10;96070.00;;;;5075981;28;20204;-58
2022/12/26 13:54:19;;;;;;;0.60;0.60;;;;;9.00;96070.00;;;;5075543;28;20607;-58
2022/12/26 13:57:27;;;;;;;0.50;0.50;;;;;9.00;96083.00;;;;5075245;28;20199;-58
2022/12/26 14:00:22;;;;;;;0.60;0.60;;;9.70;99.90;8.90;96078.00;;;;5075929;28;20232;-58
2022/12/26 14:03:23;;;;;;;0.50;0.50;;;;;8.80;96087.00;;;;5075484;28;20226;-58
2022/12/26 14:06:23;;;;;;;0.50;0.50;;;;;8.90;96082.00;;;;5058391;28;20595;-58
2022/12/26 14:09:19;;;;;;;0.70;0.70;;;;;8.90;96073.00;;;;5057593;28;20195;-58
2022/12/26 14:12:02;;;;;;;0.70;0.70;;;;;8.80;96090.00;;;;5075522;28;20219;-58
2022/12/26 14:14:39;;;;;;;0.50;0.50;;;;;8.80;96097.00;;;;5075877;28;20184;-58
2022/12/26 14:17:15;;;;;;;0.60;0.60;;;;;8.90;96085.00;;;;5075717;28;20625;-57
2022/12/26 14:19:53;;;;;;;0.60;0.60;;;;;8.90;96084.00;;;;5075685;28;20179;-57
2022/12/26 14:22:31;;;;;;;0.50;0.50;;;;;8.90;96071.00;;;;5075308;28;20222;-57
2022/12/26 14:25:08;;;;;;;0.50;0.50;;;;;8.80;96073.00;;;;5075315;28;20245;-57
2022/12/26 14:27:44;;;;;;;0.60;0.60;;;;;9.00;96075.00;;;;5075486;28;20206;-58
2022/12/26 14:30:21;;;;;;;1.20;1.20;;;;;8.80;96094.00;;;;5075124;28;20268;-58
2022/12/26 14:33:03;;;;;;;0.77;0.77;;;;;8.80;96076.00;;;;5057068;28;20221;-57
2022/12/26 14:35:35;;;;;;;0.67;0.67;;;;;8.80;96093.00;;;;5075499;28;20187;-57
2022/12/26 14:38:19;;;;;;;0.60;0.60;;;;;8.90;96070.00;;;;5075011;28;20183;-57
2022/12/26 14:41:00;;;;;;;0.63;0.63;;;;;8.80;96059.00;;;;5075230;28;20632;-59
2022/12/26 14:43:33;;;;;;;0.60;0.60;;;;;8.80;96059.00;;;;5075431;28;20235;-57
2022/12/26 14:46:03;;;;;;;0.70;0.70;;;;;8.80;96052.00;;;;5075111;28;20168;-58
2022/12/26 14:48:54;;;;;;;1.67;1.57;;;;;8.80;96058.00;;;;5075589;28;20253;-57
2022/12/26 14:51:39;;;;;;;0.50;0.50;;;;;8.80;96055.00;;;;5074824;28;20203;-58
2022/12/26 14:54:33;;;;;;;0.63;0.63;;;;;8.70;96063.00;;;;5074737;28;20218;-58
2022/12/26 14:57:01;;;;;;;0.57;0.57;;;;;8.70;96066.00;;;;5074655;28;20631;-58
2022/12/26 14:59:31;;;;;;;0.80;0.80;;;;;8.80;96064.00;;;;5074914;28;20206;-58
2022/12/26 15:02:10;;;;;;;0.60;0.60;;;;;8.70;96067.00;;;;5074453;28;20215;-58
2022/12/26 15:05:02;;;;;;;0.60;0.60;;;;;8.70;96057.00;;;;5074783;28;20188;-58
2022/12/26 15:07:59;;;;;;;0.50;0.50;;;;;8.80;96056.00;;;;5074915;28;20188;-57
2022/12/26 15:11:05;;;;;;;0.70;0.70;;;;;8.70;96057.00;;;;5057268;28;20231;-58